Hauptseite
METAR-TAF:

METAR-TAF

Flughäfen :

Flughafen Guernsey

Guernsey,

Breite: 49-26N, Länge: 002-36W, Höhe: 102 m

Beobachtung

Neuester Wetterbericht von vor 18 Minuten, um 11:20 UTC
Wind 9 kt aus Nord
Temperatur 20°C
Luftfeuchtigkeit 68%
Luftdruck 1018 hPa
Sichtweite 10 km oder mehr
keine Wolken unter 1500 m und keine Kumulonimbus oder Gewitterwolken

METAR: EGJB 191120Z 36009KT CAVOK 20/14 Q1018

Zeit: 12:38 (11:38 UTC)

Prognose

Neuester Wetterbericht von vor 39 Minuten, um 10:59 UTC
Gültige Prognose vom 19 um 12 UTC bis 19 um 21 UTC
Wind 10 kt aus Nord
Sichtweite 10 km oder mehr
keine Wolken unter 1500 m und keine Kumulonimbus oder Gewitterwolken

TAF: EGJB 191059Z 1912/1921 35010KT CAVOK

Wetterbeobachtungen und Prognosen von mehr als 4000 Flughäfen (METAR und TAF Bericht).

Die verfügbaren Stationen werden durch gelbe und rote Markierungen auf der Karte dargestellt.

Führen Sie die Maus auf sie, um den Namen der Station zu sehen.

Darauf klicken, um die Beobachtung von Wetterbeobachtungen und Prognosen zu sehen.

Um die Karte zu ändern : klicken Sie auf den grünen Tasten mit einem schwarzen Kreuz Zum Vergrößern, auf den grünen Button mit einem Gedankenstrich zu verkleinern, oder auf die grünen Pfeile für benachbarte Karten.


METAR-TAF: